Terminal Aerodrome Forecast
Issued by NWS

Home | Current Version | Previous Version | Text Only | Print | Product List | Glossary On
Versions: 1 2 3 4 5 6 7 8 9 10 11 12 13 14 15 16 17 18 19 20 21 22 23 24 25 26 27 28 29 30 31 32 33 34 35 36 37 38 39 40 41 42
000
FTUS43 KMKX 242202 AAA
TAFUES
TAF AMD
KUES 242202Z 2422/2518 12014G24KT P6SM OVC060
     FM242300 13012G22KT 6SM -SHRA OVC050 WS020/15040KT
     FM250200 13008KT 5SM -RA SCT030 OVC040 WS020/16040KT
     FM250500 13006KT 4SM -RA BR OVC025
     FM250900 VRB05KT P6SM SCT020 BKN100
     FM251100 33006KT P6SM SKC
     FM251700 28014G24KT P6SM SKC=

USA.gov is the U.S. government's official web portal to all federal, state and local government web resources and services.